sensor_id;sensor_type;location;lat;lon;timestamp;pressure;altitude;pressure_sealevel;temperature;humidity
57668;BME280;43499;52.366;12.912;2023-04-27T00:00:27;101521.75;;;6.29;64.79
57668;BME280;43499;52.366;12.912;2023-04-27T00:01:28;101526.22;;;6.30;65.32
57668;BME280;43499;52.366;12.912;2023-04-27T00:02:31;101522.34;;;6.26;65.06
57668;BME280;43499;52.366;12.912;2023-04-27T00:03:32;101530.69;;;6.31;65.30
57668;BME280;43499;52.366;12.912;2023-04-27T00:04:33;101525.66;;;6.32;65.60
57668;BME280;43499;52.366;12.912;2023-04-27T00:05:35;101528.84;;;6.30;65.45
57668;BME280;43499;52.366;12.912;2023-04-27T00:06:36;101520.34;;;6.24;65.42
57668;BME280;43499;52.366;12.912;2023-04-27T00:07:37;101507.03;;;6.13;65.21
57668;BME280;43499;52.366;12.912;2023-04-27T00:08:38;101523.84;;;6.24;65.77
57668;BME280;43499;52.366;12.912;2023-04-27T00:09:39;101528.53;;;6.27;65.81
57668;BME280;43499;52.366;12.912;2023-04-27T00:10:40;101524.97;;;6.26;65.61
57668;BME280;43499;52.366;12.912;2023-04-27T00:11:41;101513.25;;;6.23;65.88
57668;BME280;43499;52.366;12.912;2023-04-27T00:12:42;101520.16;;;6.22;65.65
57668;BME280;43499;52.366;12.912;2023-04-27T00:13:43;101513.84;;;6.20;66.30
57668;BME280;43499;52.366;12.912;2023-04-27T00:14:44;101510.53;;;6.14;65.90
57668;BME280;43499;52.366;12.912;2023-04-27T00:15:45;101517.03;;;6.17;65.75
57668;BME280;43499;52.366;12.912;2023-04-27T00:16:46;101516.63;;;6.22;65.65
57668;BME280;43499;52.366;12.912;2023-04-27T00:17:47;101520.00;;;6.21;66.14
57668;BME280;43499;52.366;12.912;2023-04-27T00:18:48;101509.03;;;6.16;65.94
57668;BME280;43499;52.366;12.912;2023-04-27T00:19:49;101521.09;;;6.23;66.14
57668;BME280;43499;52.366;12.912;2023-04-27T00:20:51;101518.13;;;6.20;66.50
57668;BME280;43499;52.366;12.912;2023-04-27T00:21:52;101517.97;;;6.18;65.90
57668;BME280;43499;52.366;12.912;2023-04-27T00:22:53;101507.59;;;6.11;66.15
57668;BME280;43499;52.366;12.912;2023-04-27T00:23:54;101497.56;;;6.07;65.74
57668;BME280;43499;52.366;12.912;2023-04-27T00:24:56;101522.44;;;6.19;65.79
57668;BME280;43499;52.366;12.912;2023-04-27T00:25:57;101494.03;;;6.06;65.83
57668;BME280;43499;52.366;12.912;2023-04-27T00:26:58;101523.00;;;6.16;66.04
57668;BME280;43499;52.366;12.912;2023-04-27T00:27:59;101513.16;;;6.14;66.18
57668;BME280;43499;52.366;12.912;2023-04-27T00:29:00;101526.06;;;6.12;65.75
57668;BME280;43499;52.366;12.912;2023-04-27T00:30:01;101513.25;;;6.07;66.09
57668;BME280;43499;52.366;12.912;2023-04-27T00:31:02;101522.19;;;6.09;66.24
57668;BME280;43499;52.366;12.912;2023-04-27T00:32:04;101510.44;;;6.05;66.07
57668;BME280;43499;52.366;12.912;2023-04-27T00:33:05;101518.03;;;6.11;66.45
57668;BME280;43499;52.366;12.912;2023-04-27T00:34:06;101518.78;;;6.10;65.76
57668;BME280;43499;52.366;12.912;2023-04-27T00:35:08;101517.13;;;6.10;66.30
57668;BME280;43499;52.366;12.912;2023-04-27T00:36:09;101508.19;;;6.08;66.45
57668;BME280;43499;52.366;12.912;2023-04-27T00:37:10;101521.34;;;6.17;66.20
57668;BME280;43499;52.366;12.912;2023-04-27T00:38:11;101527.97;;;6.22;65.60
57668;BME280;43499;52.366;12.912;2023-04-27T00:39:12;101520.06;;;6.13;65.56
57668;BME280;43499;52.366;12.912;2023-04-27T00:40:13;101525.59;;;6.16;65.76
57668;BME280;43499;52.366;12.912;2023-04-27T00:41:14;101517.88;;;6.09;66.04
57668;BME280;43499;52.366;12.912;2023-04-27T00:42:16;101527.47;;;6.17;65.92
57668;BME280;43499;52.366;12.912;2023-04-27T00:43:19;101531.94;;;6.18;66.02
57668;BME280;43499;52.366;12.912;2023-04-27T00:44:24;101528.41;;;6.18;66.17
57668;BME280;43499;52.366;12.912;2023-04-27T00:45:25;101529.53;;;6.20;65.59
57668;BME280;43499;52.366;12.912;2023-04-27T00:46:27;101505.72;;;6.10;65.60
57668;BME280;43499;52.366;12.912;2023-04-27T00:47:29;101531.19;;;6.20;65.78
57668;BME280;43499;52.366;12.912;2023-04-27T00:48:30;101530.09;;;6.17;65.89
57668;BME280;43499;52.366;12.912;2023-04-27T00:49:31;101532.69;;;6.17;65.63
57668;BME280;43499;52.366;12.912;2023-04-27T00:50:32;101527.41;;;6.09;65.11
57668;BME280;43499;52.366;12.912;2023-04-27T00:51:34;101515.66;;;6.05;65.64
57668;BME280;43499;52.366;12.912;2023-04-27T00:52:35;101524.78;;;6.09;65.77
57668;BME280;43499;52.366;12.912;2023-04-27T00:53:36;101538.75;;;6.09;66.00
57668;BME280;43499;52.366;12.912;2023-04-27T00:54:37;101538.16;;;6.12;65.57
57668;BME280;43499;52.366;12.912;2023-04-27T00:55:39;101536.13;;;6.09;65.87
57668;BME280;43499;52.366;12.912;2023-04-27T00:56:40;101541.34;;;6.09;65.82
57668;BME280;43499;52.366;12.912;2023-04-27T00:57:41;101537.03;;;6.10;66.26
57668;BME280;43499;52.366;12.912;2023-04-27T00:58:44;101537.03;;;6.10;66.04
57668;BME280;43499;52.366;12.912;2023-04-27T00:59:46;101533.53;;;6.09;65.69
57668;BME280;43499;52.366;12.912;2023-04-27T01:00:48;101534.63;;;6.11;65.52
57668;BME280;43499;52.366;12.912;2023-04-27T01:01:49;101545.44;;;6.14;65.57
57668;BME280;43499;52.366;12.912;2023-04-27T01:02:51;101529.31;;;6.02;65.50
57668;BME280;43499;52.366;12.912;2023-04-27T01:03:53;101542.69;;;6.06;66.20
57668;BME280;43499;52.366;12.912;2023-04-27T01:04:54;101540.84;;;6.05;66.08
57668;BME280;43499;52.366;12.912;2023-04-27T01:05:55;101535.47;;;6.03;65.66
57668;BME280;43499;52.366;12.912;2023-04-27T01:06:58;101524.69;;;6.00;65.65
57668;BME280;43499;52.366;12.912;2023-04-27T01:07:59;101541.19;;;6.08;65.80
57668;BME280;43499;52.366;12.912;2023-04-27T01:09:01;101531.16;;;6.04;65.94
57668;BME280;43499;52.366;12.912;2023-04-27T01:10:03;101545.97;;;6.12;66.29
57668;BME280;43499;52.366;12.912;2023-04-27T01:11:04;101517.56;;;5.99;65.93
57668;BME280;43499;52.366;12.912;2023-04-27T01:12:06;101542.28;;;6.10;66.07
57668;BME280;43499;52.366;12.912;2023-04-27T01:13:07;101546.94;;;6.12;65.50
57668;BME280;43499;52.366;12.912;2023-04-27T01:14:08;101544.13;;;6.11;65.93
57668;BME280;43499;52.366;12.912;2023-04-27T01:15:09;101539.34;;;6.07;66.48
57668;BME280;43499;52.366;12.912;2023-04-27T01:16:10;101535.78;;;6.06;66.45
57668;BME280;43499;52.366;12.912;2023-04-27T01:17:13;101551.13;;;6.03;66.00
57668;BME280;43499;52.366;12.912;2023-04-27T01:18:14;101544.41;;;5.98;66.54
57668;BME280;43499;52.366;12.912;2023-04-27T01:19:15;101538.63;;;6.00;66.18
57668;BME280;43499;52.366;12.912;2023-04-27T01:20:17;101547.16;;;6.07;66.43
57668;BME280;43499;52.366;12.912;2023-04-27T01:21:18;101544.97;;;6.02;66.60
57668;BME280;43499;52.366;12.912;2023-04-27T01:22:22;101547.56;;;6.02;66.34
57668;BME280;43499;52.366;12.912;2023-04-27T01:23:23;101549.25;;;6.02;66.49
57668;BME280;43499;52.366;12.912;2023-04-27T01:24:24;101556.50;;;6.05;66.27
57668;BME280;43499;52.366;12.912;2023-04-27T01:25:25;101552.03;;;6.04;66.63
57668;BME280;43499;52.366;12.912;2023-04-27T01:26:26;101551.69;;;6.00;66.52
57668;BME280;43499;52.366;12.912;2023-04-27T01:27:27;101534.81;;;5.90;66.74
57668;BME280;43499;52.366;12.912;2023-04-27T01:28:28;101540.53;;;5.94;66.78
57668;BME280;43499;52.366;12.912;2023-04-27T01:29:29;101548.53;;;5.96;66.47
57668;BME280;43499;52.366;12.912;2023-04-27T01:30:30;101552.44;;;5.99;66.63
57668;BME280;43499;52.366;12.912;2023-04-27T01:31:33;101548.16;;;6.00;66.79
57668;BME280;43499;52.366;12.912;2023-04-27T01:32:36;101546.09;;;5.97;66.92
57668;BME280;43499;52.366;12.912;2023-04-27T01:33:38;101556.53;;;5.97;66.90
57668;BME280;43499;52.366;12.912;2023-04-27T01:34:40;101545.41;;;5.91;66.40
57668;BME280;43499;52.366;12.912;2023-04-27T01:35:41;101536.66;;;5.91;67.18
57668;BME280;43499;52.366;12.912;2023-04-27T01:36:42;101556.91;;;6.00;66.85
57668;BME280;43499;52.366;12.912;2023-04-27T01:37:43;101555.25;;;6.01;67.14
57668;BME280;43499;52.366;12.912;2023-04-27T01:38:44;101550.38;;;5.97;67.16
57668;BME280;43499;52.366;12.912;2023-04-27T01:39:47;101537.97;;;5.87;67.04
57668;BME280;43499;52.366;12.912;2023-04-27T01:40:48;101556.19;;;5.94;66.94
57668;BME280;43499;52.366;12.912;2023-04-27T01:41:49;101539.66;;;5.86;66.59
57668;BME280;43499;52.366;12.912;2023-04-27T01:42:50;101560.66;;;5.95;66.78
57668;BME280;43499;52.366;12.912;2023-04-27T01:43:51;101542.63;;;5.90;66.84
57668;BME280;43499;52.366;12.912;2023-04-27T01:44:52;101564.38;;;5.97;67.11
57668;BME280;43499;52.366;12.912;2023-04-27T01:45:54;101555.84;;;5.91;67.30
57668;BME280;43499;52.366;12.912;2023-04-27T01:46:55;101553.09;;;5.82;67.52
57668;BME280;43499;52.366;12.912;2023-04-27T01:47:56;101560.38;;;5.85;67.96
57668;BME280;43499;52.366;12.912;2023-04-27T01:48:57;101544.25;;;5.73;67.64
57668;BME280;43499;52.366;12.912;2023-04-27T01:49:58;101568.59;;;5.81;67.51
57668;BME280;43499;52.366;12.912;2023-04-27T01:50:59;101558.22;;;5.74;67.78
57668;BME280;43499;52.366;12.912;2023-04-27T01:52:01;101563.78;;;5.77;68.17
57668;BME280;43499;52.366;12.912;2023-04-27T01:53:02;101571.59;;;5.77;68.06
57668;BME280;43499;52.366;12.912;2023-04-27T01:54:03;101568.59;;;5.81;67.77
57668;BME280;43499;52.366;12.912;2023-04-27T01:55:04;101557.13;;;5.71;68.13
57668;BME280;43499;52.366;12.912;2023-04-27T01:56:06;101559.22;;;5.67;67.93
57668;BME280;43499;52.366;12.912;2023-04-27T01:57:07;101559.53;;;5.70;68.25
57668;BME280;43499;52.366;12.912;2023-04-27T01:58:08;101562.22;;;5.63;68.72
57668;BME280;43499;52.366;12.912;2023-04-27T01:59:09;101573.00;;;5.66;68.54
57668;BME280;43499;52.366;12.912;2023-04-27T02:00:11;101577.03;;;5.71;68.32
57668;BME280;43499;52.366;12.912;2023-04-27T02:01:25;101569.28;;;5.64;69.12
57668;BME280;43499;52.366;12.912;2023-04-27T02:02:26;101578.59;;;5.69;69.32
57668;BME280;43499;52.366;12.912;2023-04-27T02:03:27;101579.66;;;5.71;68.87
57668;BME280;43499;52.366;12.912;2023-04-27T02:04:29;101565.56;;;5.62;68.69
57668;BME280;43499;52.366;12.912;2023-04-27T02:05:30;101572.06;;;5.65;69.14
57668;BME280;43499;52.366;12.912;2023-04-27T02:06:31;101566.31;;;5.61;69.20
57668;BME280;43499;52.366;12.912;2023-04-27T02:07:32;101578.22;;;5.66;69.01
57668;BME280;43499;52.366;12.912;2023-04-27T02:08:33;101571.72;;;5.62;69.33
57668;BME280;43499;52.366;12.912;2023-04-27T02:09:34;101574.66;;;5.65;69.32
57668;BME280;43499;52.366;12.912;2023-04-27T02:10:36;101571.88;;;5.64;69.35
57668;BME280;43499;52.366;12.912;2023-04-27T02:11:37;101580.59;;;5.71;69.66
57668;BME280;43499;52.366;12.912;2023-04-27T02:12:38;101572.41;;;5.68;68.85
57668;BME280;43499;52.366;12.912;2023-04-27T02:13:40;101584.31;;;5.74;69.27
57668;BME280;43499;52.366;12.912;2023-04-27T02:14:41;101583.56;;;5.75;68.85
57668;BME280;43499;52.366;12.912;2023-04-27T02:15:42;101587.09;;;5.75;69.39
57668;BME280;43499;52.366;12.912;2023-04-27T02:16:43;101583.78;;;5.69;69.44
57668;BME280;43499;52.366;12.912;2023-04-27T02:17:44;101583.78;;;5.69;69.71
57668;BME280;43499;52.366;12.912;2023-04-27T02:18:47;101593.63;;;5.71;69.81
57668;BME280;43499;52.366;12.912;2023-04-27T02:19:50;101586.41;;;5.69;69.55
57668;BME280;43499;52.366;12.912;2023-04-27T02:20:51;101578.03;;;5.64;69.60
57668;BME280;43499;52.366;12.912;2023-04-27T02:21:52;101570.78;;;5.62;69.73
57668;BME280;43499;52.366;12.912;2023-04-27T02:22:53;101584.72;;;5.69;69.78
57668;BME280;43499;52.366;12.912;2023-04-27T02:23:54;101585.09;;;5.65;69.45
57668;BME280;43499;52.366;12.912;2023-04-27T02:24:55;101581.06;;;5.60;70.02
57668;BME280;43499;52.366;12.912;2023-04-27T02:25:56;101585.09;;;5.65;69.98
57668;BME280;43499;52.366;12.912;2023-04-27T02:26:57;101570.09;;;5.55;70.02
57668;BME280;43499;52.366;12.912;2023-04-27T02:27:58;101587.38;;;5.62;69.89
57668;BME280;43499;52.366;12.912;2023-04-27T02:28:59;101585.84;;;5.64;70.23
57668;BME280;43499;52.366;12.912;2023-04-27T02:30:03;101572.88;;;5.57;70.17
57668;BME280;43499;52.366;12.912;2023-04-27T02:31:05;101574.88;;;5.60;70.27
57668;BME280;43499;52.366;12.912;2023-04-27T02:32:06;101587.38;;;5.62;70.44
57668;BME280;43499;52.366;12.912;2023-04-27T02:33:07;101565.78;;;5.56;70.18
57668;BME280;43499;52.366;12.912;2023-04-27T02:34:08;101584.53;;;5.68;70.20
57668;BME280;43499;52.366;12.912;2023-04-27T02:35:09;101581.56;;;5.65;70.06
57668;BME280;43499;52.366;12.912;2023-04-27T02:36:10;101557.81;;;5.54;69.99
57668;BME280;43499;52.366;12.912;2023-04-27T02:37:11;101588.81;;;5.67;69.92
57668;BME280;43499;52.366;12.912;2023-04-27T02:38:12;101580.84;;;5.59;70.51
57668;BME280;43499;52.366;12.912;2023-04-27T02:39:14;101567.50;;;5.55;70.23
57668;BME280;43499;52.366;12.912;2023-04-27T02:40:15;101587.69;;;5.65;70.27
57668;BME280;43499;52.366;12.912;2023-04-27T02:41:16;101586.41;;;5.69;70.63
57668;BME280;43499;52.366;12.912;2023-04-27T02:42:17;101570.44;;;5.59;70.47
57668;BME280;43499;52.366;12.912;2023-04-27T02:43:18;101592.38;;;5.68;70.51
57668;BME280;43499;52.366;12.912;2023-04-27T02:44:19;101582.50;;;5.65;71.24
57668;BME280;43499;52.366;12.912;2023-04-27T02:45:20;101570.09;;;5.55;70.56
57668;BME280;43499;52.366;12.912;2023-04-27T02:46:21;101585.31;;;5.60;70.69
57668;BME280;43499;52.366;12.912;2023-04-27T02:47:22;101585.16;;;5.58;70.86
57668;BME280;43499;52.366;12.912;2023-04-27T02:48:23;101590.53;;;5.60;71.30
57668;BME280;43499;52.366;12.912;2023-04-27T02:49:24;101588.50;;;5.57;70.90
57668;BME280;43499;52.366;12.912;2023-04-27T02:50:25;101587.38;;;5.62;71.19
57668;BME280;43499;52.366;12.912;2023-04-27T02:51:26;101589.78;;;5.61;70.53
57668;BME280;43499;52.366;12.912;2023-04-27T02:52:28;101600.00;;;5.66;70.92
57668;BME280;43499;52.366;12.912;2023-04-27T02:53:29;101582.38;;;5.56;71.49
57668;BME280;43499;52.366;12.912;2023-04-27T02:54:30;101593.72;;;5.57;70.99
57668;BME280;43499;52.366;12.912;2023-04-27T02:55:32;101597.63;;;5.61;71.70
57668;BME280;43499;52.366;12.912;2023-04-27T02:56:33;101582.94;;;5.54;71.30
57668;BME280;43499;52.366;12.912;2023-04-27T02:57:34;101582.63;;;5.51;71.05
57668;BME280;43499;52.366;12.912;2023-04-27T02:58:35;101599.47;;;5.62;71.61
57668;BME280;43499;52.366;12.912;2023-04-27T02:59:36;101602.66;;;5.59;71.40
57668;BME280;43499;52.366;12.912;2023-04-27T03:00:37;101603.06;;;5.55;72.02
57668;BME280;43499;52.366;12.912;2023-04-27T03:01:40;101597.66;;;5.53;71.94
57668;BME280;43499;52.366;12.912;2023-04-27T03:02:41;101601.38;;;5.55;71.84
57668;BME280;43499;52.366;12.912;2023-04-27T03:03:45;101604.16;;;5.57;71.94
57668;BME280;43499;52.366;12.912;2023-04-27T03:04:52;101606.78;;;5.57;71.51
57668;BME280;43499;52.366;12.912;2023-04-27T03:05:54;101602.31;;;5.56;71.78
57668;BME280;43499;52.366;12.912;2023-04-27T03:06:55;101597.84;;;5.55;71.87
57668;BME280;43499;52.366;12.912;2023-04-27T03:07:56;101602.88;;;5.53;71.99
57668;BME280;43499;52.366;12.912;2023-04-27T03:08:59;101603.28;;;5.49;71.95
57668;BME280;43499;52.366;12.912;2023-04-27T03:10:02;101604.38;;;5.51;71.62
57668;BME280;43499;52.366;12.912;2023-04-27T03:11:04;101597.53;;;5.45;72.06
57668;BME280;43499;52.366;12.912;2023-04-27T03:12:05;101608.31;;;5.48;71.58
57668;BME280;43499;52.366;12.912;2023-04-27T03:13:06;101611.84;;;5.48;72.38
57668;BME280;43499;52.366;12.912;2023-04-27T03:14:07;101586.63;;;5.33;72.51
57668;BME280;43499;52.366;12.912;2023-04-27T03:15:09;101612.78;;;5.49;72.51
57668;BME280;43499;52.366;12.912;2023-04-27T03:16:10;101611.69;;;5.47;72.29
57668;BME280;43499;52.366;12.912;2023-04-27T03:17:11;101600.72;;;5.42;72.05
57668;BME280;43499;52.366;12.912;2023-04-27T03:18:13;101610.72;;;5.53;71.72
57668;BME280;43499;52.366;12.912;2023-04-27T03:19:15;101615.34;;;5.56;71.99
57668;BME280;43499;52.366;12.912;2023-04-27T03:20:16;101617.03;;;5.55;71.65
57668;BME280;43499;52.366;12.912;2023-04-27T03:21:17;101602.94;;;5.46;71.84
57668;BME280;43499;52.366;12.912;2023-04-27T03:22:19;101615.97;;;5.46;71.75
57668;BME280;43499;52.366;12.912;2023-04-27T03:23:20;101616.53;;;5.44;72.12
57668;BME280;43499;52.366;12.912;2023-04-27T03:24:21;101612.81;;;5.41;71.82
57668;BME280;43499;52.366;12.912;2023-04-27T03:25:25;101613.75;;;5.42;72.29
57668;BME280;43499;52.366;12.912;2023-04-27T03:26:26;101612.47;;;5.38;72.32
57668;BME280;43499;52.366;12.912;2023-04-27T03:27:27;101623.25;;;5.41;71.90
57668;BME280;43499;52.366;12.912;2023-04-27T03:28:28;101605.56;;;5.39;71.58
57668;BME280;43499;52.366;12.912;2023-04-27T03:29:29;101596.84;;;5.31;71.85
57668;BME280;43499;52.366;12.912;2023-04-27T03:30:30;101620.84;;;5.43;71.92
57668;BME280;43499;52.366;12.912;2023-04-27T03:31:32;101621.75;;;5.44;71.68
57668;BME280;43499;52.366;12.912;2023-04-27T03:32:33;101611.91;;;5.41;72.12
57668;BME280;43499;52.366;12.912;2023-04-27T03:33:35;101623.81;;;5.46;72.42
57668;BME280;43499;52.366;12.912;2023-04-27T03:34:37;101612.13;;;5.35;72.01
57668;BME280;43499;52.366;12.912;2023-04-27T03:35:38;101627.91;;;5.44;72.17
57668;BME280;43499;52.366;12.912;2023-04-27T03:36:39;101615.25;;;5.40;72.48
57668;BME280;43499;52.366;12.912;2023-04-27T03:37:40;101627.91;;;5.44;72.34
57668;BME280;43499;52.366;12.912;2023-04-27T03:38:41;101632.19;;;5.44;71.67
57668;BME280;43499;52.366;12.912;2023-04-27T03:39:42;101626.03;;;5.43;71.90
57668;BME280;43499;52.366;12.912;2023-04-27T03:40:44;101631.44;;;5.45;71.91
57668;BME280;43499;52.366;12.912;2023-04-27T03:41:45;101620.31;;;5.38;71.65
57668;BME280;43499;52.366;12.912;2023-04-27T03:42:47;101631.78;;;5.48;71.88
57668;BME280;43499;52.366;12.912;2023-04-27T03:43:48;101626.97;;;5.44;71.95
57668;BME280;43499;52.366;12.912;2023-04-27T03:44:52;101630.69;;;5.46;71.70
57668;BME280;43499;52.366;12.912;2023-04-27T03:45:53;101638.50;;;5.46;72.24
57668;BME280;43499;52.366;12.912;2023-04-27T03:46:54;101626.06;;;5.36;71.87
57668;BME280;43499;52.366;12.912;2023-04-27T03:47:55;101637.06;;;5.40;71.93
57668;BME280;43499;52.366;12.912;2023-04-27T03:48:56;101638.56;;;5.38;72.01
57668;BME280;43499;52.366;12.912;2023-04-27T03:49:58;101628.88;;;5.37;71.67
57668;BME280;43499;52.366;12.912;2023-04-27T03:50:59;101637.97;;;5.41;71.50
57668;BME280;43499;52.366;12.912;2023-04-27T03:52:01;101630.94;;;5.33;71.74
57668;BME280;43499;52.366;12.912;2023-04-27T03:53:02;101634.25;;;5.39;71.91
57668;BME280;43499;52.366;12.912;2023-04-27T03:54:04;101643.34;;;5.43;71.49
57668;BME280;43499;52.366;12.912;2023-04-27T03:55:05;101636.47;;;5.43;71.63
57668;BME280;43499;52.366;12.912;2023-04-27T03:56:07;101644.66;;;5.46;71.74
57668;BME280;43499;52.366;12.912;2023-04-27T03:57:08;101626.03;;;5.43;71.58
57668;BME280;43499;52.366;12.912;2023-04-27T03:58:10;101640.41;;;5.39;71.71
57668;BME280;43499;52.366;12.912;2023-04-27T03:59:17;101650.78;;;5.47;71.59
57668;BME280;43499;52.366;12.912;2023-04-27T04:00:23;101638.88;;;5.41;71.69
57668;BME280;43499;52.366;12.912;2023-04-27T04:01:24;101650.25;;;5.42;71.73
57668;BME280;43499;52.366;12.912;2023-04-27T04:02:26;101654.16;;;5.46;71.19
57668;BME280;43499;52.366;12.912;2023-04-27T04:03:27;101653.22;;;5.45;71.51
57668;BME280;43499;52.366;12.912;2023-04-27T04:04:28;101622.38;;;5.34;71.60
57668;BME280;43499;52.366;12.912;2023-04-27T04:05:29;101656.75;;;5.46;71.20
57668;BME280;43499;52.366;12.912;2023-04-27T04:06:30;101630.38;;;5.35;71.07
57668;BME280;43499;52.366;12.912;2023-04-27T04:07:31;101659.53;;;5.47;71.63
57668;BME280;43499;52.366;12.912;2023-04-27T04:08:32;101636.50;;;5.36;71.29
57668;BME280;43499;52.366;12.912;2023-04-27T04:09:34;101659.38;;;5.46;71.52
57668;BME280;43499;52.366;12.912;2023-04-27T04:10:35;101640.94;;;5.44;71.13
57668;BME280;43499;52.366;12.912;2023-04-27T04:11:36;101661.38;;;5.48;70.97
57668;BME280;43499;52.366;12.912;2023-04-27T04:12:39;101648.03;;;5.45;71.42
57668;BME280;43499;52.366;12.912;2023-04-27T04:13:41;101655.03;;;5.53;70.52
57668;BME280;43499;52.366;12.912;2023-04-27T04:14:42;101652.44;;;5.53;70.66
57668;BME280;43499;52.366;12.912;2023-04-27T04:15:43;101648.19;;;5.47;70.76
57668;BME280;43499;52.366;12.912;2023-04-27T04:16:44;101654.09;;;5.53;70.41
57668;BME280;43499;52.366;12.912;2023-04-27T04:17:47;101655.25;;;5.48;70.58
57668;BME280;43499;52.366;12.912;2023-04-27T04:18:49;101642.22;;;5.48;70.70
57668;BME280;43499;52.366;12.912;2023-04-27T04:19:50;101647.28;;;5.46;70.86
57668;BME280;43499;52.366;12.912;2023-04-27T04:20:51;101665.31;;;5.52;70.80
57668;BME280;43499;52.366;12.912;2023-04-27T04:21:53;101655.47;;;5.42;71.17
57668;BME280;43499;52.366;12.912;2023-04-27T04:22:56;101658.09;;;5.42;71.24
57668;BME280;43499;52.366;12.912;2023-04-27T04:23:58;101660.63;;;5.49;71.53
57668;BME280;43499;52.366;12.912;2023-04-27T04:24:59;101670.69;;;5.53;70.95
57668;BME280;43499;52.366;12.912;2023-04-27T04:26:00;101658.56;;;5.54;71.39
57668;BME280;43499;52.366;12.912;2023-04-27T04:27:06;101661.59;;;5.50;71.34
57668;BME280;43499;52.366;12.912;2023-04-27T04:28:07;101667.91;;;5.52;71.57
57668;BME280;43499;52.366;12.912;2023-04-27T04:29:08;101668.09;;;5.53;71.12
57668;BME280;43499;52.366;12.912;2023-04-27T04:30:10;101661.91;;;5.53;71.30
57668;BME280;43499;52.366;12.912;2023-04-27T04:31:11;101652.13;;;5.43;71.36
57668;BME280;43499;52.366;12.912;2023-04-27T04:32:13;101646.72;;;5.41;71.09
57668;BME280;43499;52.366;12.912;2023-04-27T04:33:17;101671.28;;;5.51;71.05
57668;BME280;43499;52.366;12.912;2023-04-27T04:34:18;101674.03;;;5.52;71.11
57668;BME280;43499;52.366;12.912;2023-04-27T04:35:21;101669.94;;;5.54;71.29
57668;BME280;43499;52.366;12.912;2023-04-27T04:36:22;101672.50;;;5.62;71.10
57668;BME280;43499;52.366;12.912;2023-04-27T04:37:28;101658.56;;;5.61;70.81
57668;BME280;43499;52.366;12.912;2023-04-27T04:38:30;101663.75;;;5.61;70.98
57668;BME280;43499;52.366;12.912;2023-04-27T04:39:31;101650.00;;;5.55;70.96
57668;BME280;43499;52.366;12.912;2023-04-27T04:40:33;101671.69;;;5.70;70.44
57668;BME280;43499;52.366;12.912;2023-04-27T04:41:34;101668.94;;;5.68;70.44
57668;BME280;43499;52.366;12.912;2023-04-27T04:42:35;101668.19;;;5.69;70.44
57668;BME280;43499;52.366;12.912;2023-04-27T04:43:37;101664.81;;;5.70;70.71
57668;BME280;43499;52.366;12.912;2023-04-27T04:44:40;101660.19;;;5.68;70.76
57668;BME280;43499;52.366;12.912;2023-04-27T04:45:41;101671.91;;;5.71;70.83
57668;BME280;43499;52.366;12.912;2023-04-27T04:46:44;101667.22;;;5.76;70.58
57668;BME280;43499;52.366;12.912;2023-04-27T04:47:48;101665.50;;;5.77;70.57
57668;BME280;43499;52.366;12.912;2023-04-27T04:48:49;101667.22;;;5.76;70.43
57668;BME280;43499;52.366;12.912;2023-04-27T04:49:50;101671.84;;;5.79;69.90
57668;BME280;43499;52.366;12.912;2023-04-27T04:50:52;101671.47;;;5.83;70.18
57668;BME280;43499;52.366;12.912;2023-04-27T04:51:53;101645.63;;;5.70;70.01
57668;BME280;43499;52.366;12.912;2023-04-27T04:52:54;101674.59;;;5.87;70.07
57668;BME280;43499;52.366;12.912;2023-04-27T04:53:56;101673.09;;;5.90;69.93
57668;BME280;43499;52.366;12.912;2023-04-27T04:54:57;101675.69;;;5.90;69.83
57668;BME280;43499;52.366;12.912;2023-04-27T04:56:13;101684.66;;;5.92;69.48
57668;BME280;43499;52.366;12.912;2023-04-27T04:57:14;101664.00;;;5.86;69.87
57668;BME280;43499;52.366;12.912;2023-04-27T04:58:15;101682.72;;;5.98;69.59
57668;BME280;43499;52.366;12.912;2023-04-27T04:59:16;101681.25;;;6.00;69.67
57668;BME280;43499;52.366;12.912;2023-04-27T05:00:17;101672.69;;;6.01;68.74
57668;BME280;43499;52.366;12.912;2023-04-27T05:01:19;101682.72;;;5.98;69.24
57668;BME280;43499;52.366;12.912;2023-04-27T05:02:20;101664.09;;;5.95;69.05
57668;BME280;43499;52.366;12.912;2023-04-27T05:03:22;101682.16;;;6.08;69.12
57668;BME280;43499;52.366;12.912;2023-04-27T05:04:24;101678.22;;;6.04;69.04
57668;BME280;43499;52.366;12.912;2023-04-27T05:05:26;101679.84;;;6.11;69.22
57668;BME280;43499;52.366;12.912;2023-04-27T05:06:27;101686.53;;;6.16;68.46
57668;BME280;43499;52.366;12.912;2023-04-27T05:07:29;101682.06;;;6.15;68.31
57668;BME280;43499;52.366;12.912;2023-04-27T05:08:31;101690.06;;;6.16;68.27
57668;BME280;43499;52.366;12.912;2023-04-27T05:09:32;101683.53;;;6.20;68.54
57668;BME280;43499;52.366;12.912;2023-04-27T05:10:33;101687.81;;;6.20;68.36
57668;BME280;43499;52.366;12.912;2023-04-27T05:11:34;101688.00;;;6.21;68.46
57668;BME280;43499;52.366;12.912;2023-04-27T05:12:35;101685.22;;;6.20;68.43
57668;BME280;43499;52.366;12.912;2023-04-27T05:13:38;101686.84;;;6.26;68.38
57668;BME280;43499;52.366;12.912;2023-04-27T05:14:40;101669.53;;;6.20;68.67
57668;BME280;43499;52.366;12.912;2023-04-27T05:15:41;101672.38;;;6.14;68.35
57668;BME280;43499;52.366;12.912;2023-04-27T05:16:42;101685.22;;;6.20;68.78
57668;BME280;43499;52.366;12.912;2023-04-27T05:17:43;101680.34;;;6.23;68.39
57668;BME280;43499;52.366;12.912;2023-04-27T05:18:44;101677.56;;;6.21;68.27
57668;BME280;43499;52.366;12.912;2023-04-27T05:19:45;101672.50;;;6.23;68.15
57668;BME280;43499;52.366;12.912;2023-04-27T05:20:46;101687.72;;;6.34;68.33
57668;BME280;43499;52.366;12.912;2023-04-27T05:21:47;101694.91;;;6.44;67.92